BTI2GA EFTP-LEMG
Flight info
| Callsign | BTI2GA |
|---|---|
| Flight time | N/A |
| Altitude | 34000 |
| Route | NEBAB DCT DOSUR DCT WOODY DCT CIV DCT KOVIN DCT DUCRA UM728 RESMI UN857 DISAK DCT ARKIP DCT ARNAV DCT LMG DCT UVELI DCT OSMOB DCT ARVID DCT PPN N10 CJN L27 BLN |
| Aircraft | BCS3/M-VGDW/C |
Departure
| Time | 2026-04-13 09:47 |
|---|---|
| Airport | Tampere-Pirkkala Airport (EFTP) |
Arrival
| Time | N/A |
|---|---|
| Airport | Málaga-Costa del Sol Airport (LEMG) |
| Time | Latitude | Longitude | Altitude | Speed | Heading |
|---|---|---|---|---|---|
| 2026-04-13 08:47 | 61.42001 | 23.61476 | 385 ft | 0 kts | 334° |
| 2026-04-13 09:36 | 61.42003 | 23.61477 | 385 ft | 0 kts | 353° |
| 2026-04-13 09:37 | 61.42005 | 23.61489 | 385 ft | 1 kts | 59° |
| 2026-04-13 09:37 | 61.41989 | 23.61500 | 385 ft | 3 kts | 174° |
| 2026-04-13 09:37 | 61.41957 | 23.61519 | 385 ft | 9 kts | 156° |
| 2026-04-13 09:37 | 61.41899 | 23.61577 | 385 ft | 8 kts | 154° |
| 2026-04-13 09:38 | 61.41865 | 23.61578 | 385 ft | 9 kts | 213° |
| 2026-04-13 09:38 | 61.41813 | 23.61376 | 385 ft | 17 kts | 244° |
| 2026-04-13 09:38 | 61.41766 | 23.61176 | 385 ft | 14 kts | 244° |
| 2026-04-13 09:38 | 61.41726 | 23.61000 | 386 ft | 14 kts | 245° |
| 2026-04-13 09:39 | 61.41671 | 23.60756 | 386 ft | 19 kts | 244° |
| 2026-04-13 09:39 | 61.41618 | 23.60532 | 387 ft | 16 kts | 243° |
| 2026-04-13 09:39 | 61.41575 | 23.60340 | 387 ft | 14 kts | 245° |
| 2026-04-13 09:39 | 61.41534 | 23.60160 | 387 ft | 14 kts | 244° |
| 2026-04-13 09:40 | 61.41492 | 23.59975 | 390 ft | 14 kts | 244° |
| 2026-04-13 09:40 | 61.41447 | 23.59781 | 392 ft | 18 kts | 244° |
| 2026-04-13 09:40 | 61.41384 | 23.59505 | 397 ft | 20 kts | 245° |
| 2026-04-13 09:40 | 61.41331 | 23.59269 | 396 ft | 15 kts | 245° |
| 2026-04-13 09:41 | 61.41293 | 23.59108 | 396 ft | 10 kts | 243° |
| 2026-04-13 09:41 | 61.41268 | 23.59003 | 397 ft | 6 kts | 243° |
| 2026-04-13 09:41 | 61.41245 | 23.58902 | 398 ft | 11 kts | 244° |
| 2026-04-13 09:42 | 61.41131 | 23.58404 | 401 ft | 25 kts | 245° |
| 2026-04-13 09:42 | 61.41071 | 23.58141 | 401 ft | 14 kts | 243° |
| 2026-04-13 09:42 | 61.41031 | 23.58064 | 401 ft | 7 kts | 193° |
| 2026-04-13 09:42 | 61.40994 | 23.58083 | 401 ft | 4 kts | 154° |
| 2026-04-13 09:43 | 61.40985 | 23.58091 | 401 ft | 0 kts | 154° |
| 2026-04-13 09:46 | 61.40984 | 23.58092 | 401 ft | 2 kts | 153° |
| 2026-04-13 09:46 | 61.40949 | 23.58139 | 401 ft | 7 kts | 137° |
| 2026-04-13 09:46 | 61.40926 | 23.58246 | 400 ft | 9 kts | 98° |
| 2026-04-13 09:46 | 61.40932 | 23.58324 | 399 ft | 0 kts | 65° |
| 2026-04-13 09:47 | 61.40963 | 23.58467 | 398 ft | 44 kts | 65° |
| 2026-04-13 09:47 | 61.41229 | 23.59620 | 392 ft | 130 kts | 64° |
| 2026-04-13 09:47 | 61.41723 | 23.61761 | 668 ft | 179 kts | 64° |
| 2026-04-13 09:47 | 61.42282 | 23.64040 | 1849 ft | 174 kts | 60° |
| 2026-04-13 09:48 | 61.42966 | 23.66262 | 2744 ft | 197 kts | 63° |
| 2026-04-13 09:48 | 61.43307 | 23.69133 | 3664 ft | 212 kts | 94° |
| 2026-04-13 09:48 | 61.42876 | 23.72167 | 4205 ft | 223 kts | 121° |
| 2026-04-13 09:48 | 61.41730 | 23.74454 | 4539 ft | 249 kts | 152° |
| 2026-04-13 09:49 | 61.40024 | 23.75515 | 4876 ft | 259 kts | 173° |
| 2026-04-13 09:49 | 61.38201 | 23.75588 | 5149 ft | 260 kts | 177° |
| 2026-04-13 09:49 | 61.36423 | 23.75091 | 5394 ft | 260 kts | 201° |
| 2026-04-13 09:49 | 61.34924 | 23.72986 | 5663 ft | 265 kts | 226° |
| 2026-04-13 09:50 | 61.33835 | 23.69840 | 6017 ft | 267 kts | 235° |
| 2026-04-13 09:50 | 61.32801 | 23.66550 | 6271 ft | 271 kts | 235° |
| 2026-04-13 09:50 | 61.31786 | 23.63267 | 6494 ft | 271 kts | 235° |
| 2026-04-13 09:50 | 61.30762 | 23.59981 | 6919 ft | 271 kts | 236° |
| 2026-04-13 09:51 | 61.29777 | 23.56592 | 7585 ft | 274 kts | 238° |
| 2026-04-13 09:51 | 61.28845 | 23.53158 | 8599 ft | 276 kts | 240° |
| 2026-04-13 09:51 | 61.27992 | 23.49558 | 9860 ft | 279 kts | 245° |
| 2026-04-13 09:51 | 61.27127 | 23.45823 | 10822 ft | 294 kts | 242° |
| 2026-04-13 09:52 | 61.26132 | 23.41944 | 11444 ft | 317 kts | 240° |
| 2026-04-13 09:52 | 61.25029 | 23.37780 | 12144 ft | 337 kts | 240° |
| 2026-04-13 09:52 | 61.23871 | 23.33457 | 12925 ft | 353 kts | 239° |
| 2026-04-13 09:52 | 61.22647 | 23.28895 | 13782 ft | 366 kts | 239° |
| 2026-04-13 09:53 | 61.21384 | 23.24172 | 14628 ft | 378 kts | 239° |
| 2026-04-13 09:53 | 61.20101 | 23.19344 | 15453 ft | 387 kts | 239° |
| 2026-04-13 09:53 | 61.18793 | 23.14401 | 16298 ft | 395 kts | 239° |
| 2026-04-13 09:53 | 61.17460 | 23.09354 | 17151 ft | 402 kts | 239° |
| 2026-04-13 09:54 | 61.16111 | 23.04248 | 18002 ft | 409 kts | 239° |
| 2026-04-13 09:54 | 61.14744 | 22.99066 | 18828 ft | 415 kts | 239° |
| 2026-04-13 09:54 | 61.13346 | 22.93770 | 19566 ft | 421 kts | 239° |
| 2026-04-13 09:54 | 61.11871 | 22.88490 | 20309 ft | 426 kts | 236° |
| 2026-04-13 09:55 | 61.10246 | 22.83236 | 21054 ft | 431 kts | 235° |
| 2026-04-13 09:55 | 61.08593 | 22.78121 | 21796 ft | 435 kts | 234° |
| 2026-04-13 09:55 | 61.06866 | 22.72894 | 22545 ft | 440 kts | 234° |
| 2026-04-13 09:55 | 61.05113 | 22.67648 | 23277 ft | 444 kts | 234° |
| 2026-04-13 09:56 | 61.03352 | 22.62418 | 24001 ft | 448 kts | 233° |
| 2026-04-13 09:56 | 61.01569 | 22.57152 | 24594 ft | 452 kts | 233° |
| 2026-04-13 09:56 | 60.99753 | 22.51808 | 25182 ft | 456 kts | 233° |
| 2026-04-13 09:56 | 60.97923 | 22.46435 | 25766 ft | 460 kts | 233° |
| 2026-04-13 09:57 | 60.96059 | 22.40980 | 26357 ft | 463 kts | 233° |
| 2026-04-13 09:57 | 60.94209 | 22.35584 | 26916 ft | 467 kts | 233° |
| 2026-04-13 09:57 | 60.92312 | 22.30067 | 27488 ft | 470 kts | 233° |
| 2026-04-13 09:57 | 60.90428 | 22.24605 | 28049 ft | 474 kts | 233° |
| 2026-04-13 09:58 | 60.88504 | 22.19042 | 28612 ft | 477 kts | 233° |
| 2026-04-13 09:58 | 60.86583 | 22.13496 | 29152 ft | 480 kts | 233° |
| 2026-04-13 09:58 | 60.84631 | 22.07873 | 29702 ft | 484 kts | 233° |
| 2026-04-13 09:58 | 60.82663 | 22.02219 | 30229 ft | 487 kts | 233° |
| 2026-04-13 09:59 | 60.80708 | 21.96617 | 30704 ft | 490 kts | 233° |
| 2026-04-13 09:59 | 60.78711 | 21.90912 | 31142 ft | 493 kts | 233° |
| 2026-04-13 09:59 | 60.76698 | 21.85177 | 31541 ft | 496 kts | 233° |
| 2026-04-13 09:59 | 60.74696 | 21.79485 | 31650 ft | 497 kts | 233° |
| 2026-04-13 10:00 | 60.72665 | 21.73722 | 31657 ft | 497 kts | 233° |
| 2026-04-13 10:00 | 60.68632 | 21.62322 | 31659 ft | 496 kts | 233° |
| 2026-04-13 10:01 | 60.64589 | 21.50947 | 31678 ft | 495 kts | 233° |
| 2026-04-13 10:01 | 60.60536 | 21.39605 | 31698 ft | 494 kts | 232° |
| 2026-04-13 10:02 | 60.56501 | 21.28370 | 31703 ft | 494 kts | 232° |
| 2026-04-13 10:02 | 60.52434 | 21.17103 | 31722 ft | 493 kts | 232° |
| 2026-04-13 10:03 | 60.48372 | 21.05908 | 31737 ft | 491 kts | 232° |
| 2026-04-13 10:03 | 60.46348 | 21.00353 | 31871 ft | 489 kts | 232° |
| 2026-04-13 10:03 | 60.44323 | 20.94806 | 32221 ft | 485 kts | 232° |
| 2026-04-13 10:03 | 60.42988 | 20.91157 | 32538 ft | 485 kts | 232° |
| 2026-04-13 10:04 | 60.40309 | 20.83848 | 33180 ft | 484 kts | 232° |
| 2026-04-13 10:04 | 60.38959 | 20.80169 | 33506 ft | 483 kts | 232° |
| 2026-04-13 10:04 | 60.36960 | 20.74737 | 33795 ft | 484 kts | 232° |
| 2026-04-13 10:04 | 60.34939 | 20.69258 | 33908 ft | 483 kts | 232° |
| 2026-04-13 10:05 | 60.32990 | 20.63984 | 33953 ft | 461 kts | 232° |
| 2026-04-13 10:05 | 60.29191 | 20.53739 | 33996 ft | 453 kts | 232° |
| 2026-04-13 10:06 | 60.25393 | 20.43554 | 33994 ft | 455 kts | 232° |
| 2026-04-13 10:06 | 60.21585 | 20.33398 | 33994 ft | 455 kts | 232° |
| 2026-04-13 10:07 | 60.17759 | 20.23241 | 33989 ft | 455 kts | 232° |
| 2026-04-13 10:07 | 60.13947 | 20.13162 | 33989 ft | 454 kts | 233° |
| 2026-04-13 10:08 | 60.10104 | 20.03043 | 33986 ft | 454 kts | 233° |
| 2026-04-13 10:08 | 60.06274 | 19.92992 | 33986 ft | 454 kts | 233° |
| 2026-04-13 10:09 | 60.02438 | 19.82971 | 33987 ft | 452 kts | 233° |
| 2026-04-13 10:09 | 59.98615 | 19.73032 | 33987 ft | 451 kts | 234° |
| 2026-04-13 10:10 | 59.94799 | 19.63149 | 33988 ft | 450 kts | 234° |
| 2026-04-13 10:10 | 59.90983 | 19.53307 | 33989 ft | 449 kts | 234° |
| 2026-04-13 10:11 | 59.87166 | 19.43502 | 33986 ft | 447 kts | 234° |
| 2026-04-13 10:11 | 59.83351 | 19.33739 | 33986 ft | 445 kts | 234° |
| 2026-04-13 10:12 | 59.79541 | 19.24022 | 33985 ft | 443 kts | 234° |
| 2026-04-13 10:12 | 59.75766 | 19.14429 | 33982 ft | 442 kts | 235° |
| 2026-04-13 10:13 | 59.71975 | 19.04840 | 33979 ft | 440 kts | 235° |
| 2026-04-13 10:13 | 59.68206 | 18.95343 | 33978 ft | 438 kts | 235° |
| 2026-04-13 10:14 | 59.64440 | 18.85891 | 33972 ft | 436 kts | 235° |
| 2026-04-13 10:14 | 59.60667 | 18.76462 | 33972 ft | 435 kts | 235° |
| 2026-04-13 10:15 | 59.56918 | 18.67130 | 33969 ft | 433 kts | 235° |
| 2026-04-13 10:15 | 59.53194 | 18.57893 | 33960 ft | 432 kts | 235° |
| 2026-04-13 10:16 | 59.49441 | 18.48622 | 33960 ft | 430 kts | 235° |
| 2026-04-13 10:16 | 59.45705 | 18.39432 | 33956 ft | 429 kts | 235° |
| 2026-04-13 10:17 | 59.41995 | 18.30344 | 33959 ft | 428 kts | 235° |
| 2026-04-13 10:17 | 59.38234 | 18.21166 | 33958 ft | 427 kts | 235° |
| 2026-04-13 10:18 | 59.34520 | 18.12139 | 33962 ft | 426 kts | 235° |
| 2026-04-13 10:18 | 59.30805 | 18.03142 | 33960 ft | 425 kts | 234° |
| 2026-04-13 10:19 | 59.27090 | 17.94177 | 33960 ft | 424 kts | 234° |
| 2026-04-13 10:19 | 59.23359 | 17.85209 | 33954 ft | 423 kts | 234° |
| 2026-04-13 10:20 | 59.19649 | 17.76324 | 33951 ft | 422 kts | 234° |
| 2026-04-13 10:20 | 59.15934 | 17.67463 | 33943 ft | 422 kts | 234° |
| 2026-04-13 10:21 | 59.12225 | 17.58650 | 33942 ft | 421 kts | 234° |
| 2026-04-13 10:21 | 59.08502 | 17.49834 | 33934 ft | 420 kts | 234° |
| 2026-04-13 10:22 | 59.04782 | 17.41060 | 33930 ft | 420 kts | 234° |
| 2026-04-13 10:22 | 59.01071 | 17.32337 | 33927 ft | 419 kts | 234° |
| 2026-04-13 10:23 | 58.97362 | 17.23656 | 33931 ft | 418 kts | 234° |
| 2026-04-13 10:23 | 58.93653 | 17.15009 | 33932 ft | 417 kts | 234° |
| 2026-04-13 10:24 | 58.89934 | 17.06370 | 33934 ft | 417 kts | 234° |
| 2026-04-13 10:24 | 58.86215 | 16.97766 | 33936 ft | 416 kts | 233° |
| 2026-04-13 10:25 | 58.82493 | 16.89183 | 33931 ft | 415 kts | 233° |
| 2026-04-13 10:25 | 58.78772 | 16.80633 | 33939 ft | 415 kts | 233° |
| 2026-04-13 10:26 | 58.75067 | 16.72152 | 33937 ft | 414 kts | 233° |
| 2026-04-13 10:26 | 58.71341 | 16.63657 | 33936 ft | 413 kts | 233° |
| 2026-04-13 10:27 | 58.67630 | 16.55224 | 33901 ft | 413 kts | 233° |
| 2026-04-13 10:27 | 58.63907 | 16.46793 | 33906 ft | 412 kts | 233° |
| 2026-04-13 10:28 | 58.60189 | 16.38403 | 33896 ft | 411 kts | 233° |
| 2026-04-13 10:28 | 58.56478 | 16.30062 | 33910 ft | 411 kts | 233° |
| 2026-04-13 10:29 | 58.52752 | 16.21717 | 33894 ft | 411 kts | 232° |
| 2026-04-13 10:29 | 58.49051 | 16.13456 | 33907 ft | 410 kts | 232° |
| 2026-04-13 10:30 | 58.45321 | 16.05161 | 33909 ft | 410 kts | 232° |
| 2026-04-13 10:30 | 58.41601 | 15.96921 | 33896 ft | 410 kts | 232° |
| 2026-04-13 10:31 | 58.37881 | 15.88705 | 33905 ft | 410 kts | 232° |
| 2026-04-13 10:31 | 58.34147 | 15.80491 | 33911 ft | 409 kts | 232° |
| 2026-04-13 10:32 | 58.30393 | 15.72261 | 33903 ft | 409 kts | 232° |
| 2026-04-13 10:32 | 58.26652 | 15.64091 | 33907 ft | 409 kts | 232° |
| 2026-04-13 10:33 | 58.22909 | 15.55939 | 33895 ft | 409 kts | 232° |
| 2026-04-13 10:33 | 58.19162 | 15.47807 | 33896 ft | 409 kts | 232° |
| 2026-04-13 10:34 | 58.13554 | 15.35692 | 33885 ft | 409 kts | 231° |
| 2026-04-13 10:34 | 58.09787 | 15.27588 | 33865 ft | 409 kts | 231° |
| 2026-04-13 10:35 | 58.06016 | 15.19509 | 33851 ft | 409 kts | 231° |
| 2026-04-13 10:35 | 58.02270 | 15.11509 | 33854 ft | 409 kts | 231° |
| 2026-04-13 10:36 | 57.99119 | 15.04803 | 33849 ft | 409 kts | 231° |
| 2026-04-13 10:36 | 57.95335 | 14.96774 | 33853 ft | 409 kts | 231° |
| 2026-04-13 10:37 | 57.91557 | 14.88778 | 33850 ft | 409 kts | 231° |
| 2026-04-13 10:37 | 57.87781 | 14.80817 | 33835 ft | 409 kts | 231° |
| 2026-04-13 10:38 | 57.83980 | 14.72831 | 33834 ft | 409 kts | 231° |
| 2026-04-13 10:38 | 57.80202 | 14.64920 | 33842 ft | 409 kts | 230° |
| 2026-04-13 10:39 | 57.76390 | 14.56966 | 33825 ft | 409 kts | 230° |
| 2026-04-13 10:39 | 57.72594 | 14.49074 | 33833 ft | 408 kts | 230° |
| 2026-04-13 10:40 | 57.68770 | 14.41149 | 33827 ft | 409 kts | 230° |
| 2026-04-13 10:40 | 57.64959 | 14.33281 | 33819 ft | 409 kts | 230° |
| 2026-04-13 10:41 | 57.61148 | 14.25439 | 33819 ft | 408 kts | 230° |
| 2026-04-13 10:41 | 57.57329 | 14.17605 | 33819 ft | 408 kts | 230° |
| 2026-04-13 10:42 | 57.53506 | 14.09792 | 33824 ft | 408 kts | 230° |
| 2026-04-13 10:42 | 57.49681 | 14.02001 | 33815 ft | 408 kts | 230° |
| 2026-04-13 10:43 | 57.45841 | 13.94203 | 33819 ft | 407 kts | 230° |
| 2026-04-13 10:43 | 57.42023 | 13.86474 | 33823 ft | 407 kts | 229° |
| 2026-04-13 10:44 | 57.38181 | 13.78725 | 33817 ft | 407 kts | 229° |
| 2026-04-13 10:44 | 57.34339 | 13.71001 | 33818 ft | 407 kts | 229° |
| 2026-04-13 10:45 | 57.30507 | 13.63324 | 33799 ft | 407 kts | 229° |
| 2026-04-13 10:45 | 57.26653 | 13.55627 | 33800 ft | 407 kts | 229° |
| 2026-04-13 10:46 | 57.22800 | 13.47957 | 33797 ft | 407 kts | 229° |
| 2026-04-13 10:46 | 57.18954 | 13.40328 | 33793 ft | 407 kts | 229° |
| 2026-04-13 10:47 | 57.15086 | 13.32676 | 33787 ft | 407 kts | 229° |
| 2026-04-13 10:47 | 57.11240 | 13.25093 | 33788 ft | 406 kts | 229° |
| 2026-04-13 10:48 | 57.07368 | 13.17485 | 33782 ft | 406 kts | 229° |
| 2026-04-13 10:48 | 57.03500 | 13.09916 | 33786 ft | 406 kts | 228° |
| 2026-04-13 10:49 | 56.99621 | 13.02351 | 33778 ft | 406 kts | 228° |
| 2026-04-13 10:49 | 56.95748 | 12.94816 | 33770 ft | 406 kts | 228° |
| 2026-04-13 10:50 | 56.91858 | 12.87272 | 33772 ft | 406 kts | 228° |
| 2026-04-13 10:50 | 56.87973 | 12.79762 | 33765 ft | 406 kts | 228° |
| 2026-04-13 10:51 | 56.84101 | 12.72305 | 33771 ft | 405 kts | 228° |
| 2026-04-13 10:51 | 56.80197 | 12.64806 | 33767 ft | 406 kts | 228° |
| 2026-04-13 10:52 | 56.76322 | 12.57390 | 33770 ft | 406 kts | 227° |
| 2026-04-13 10:52 | 56.72424 | 12.49954 | 33765 ft | 405 kts | 227° |
| 2026-04-13 10:53 | 56.68505 | 12.42502 | 33761 ft | 405 kts | 227° |
| 2026-04-13 10:53 | 56.64599 | 12.35096 | 33755 ft | 405 kts | 227° |
| 2026-04-13 10:54 | 56.60699 | 12.27726 | 33746 ft | 405 kts | 227° |
| 2026-04-13 10:54 | 56.56794 | 12.20371 | 33742 ft | 405 kts | 227° |
| 2026-04-13 10:55 | 56.52865 | 12.12992 | 33736 ft | 405 kts | 227° |
| 2026-04-13 10:55 | 56.48943 | 12.05653 | 33732 ft | 405 kts | 227° |
| 2026-04-13 10:56 | 56.45030 | 11.98352 | 33732 ft | 405 kts | 227° |
| 2026-04-13 10:56 | 56.41098 | 11.91038 | 33734 ft | 405 kts | 226° |
| 2026-04-13 10:57 | 56.37157 | 11.83732 | 33726 ft | 405 kts | 226° |
| 2026-04-13 10:57 | 56.33248 | 11.76507 | 33724 ft | 405 kts | 226° |
| 2026-04-13 10:58 | 56.29301 | 11.69236 | 33721 ft | 405 kts | 226° |
| 2026-04-13 10:58 | 56.25352 | 11.61982 | 33718 ft | 405 kts | 226° |
| 2026-04-13 10:59 | 56.21420 | 11.54784 | 33714 ft | 404 kts | 226° |
| 2026-04-13 10:59 | 56.17471 | 11.47576 | 33705 ft | 404 kts | 226° |
| 2026-04-13 11:00 | 56.13528 | 11.40404 | 33710 ft | 404 kts | 226° |
| 2026-04-13 11:00 | 56.09570 | 11.33220 | 33703 ft | 404 kts | 226° |
| 2026-04-13 11:01 | 56.05613 | 11.26064 | 33698 ft | 403 kts | 226° |
| 2026-04-13 11:01 | 56.01654 | 11.18929 | 33698 ft | 405 kts | 225° |